Time;durP1;ratioP1;P1;durP2;ratioP2;P2;SDS_P1;SDS_P2;PMS_P1;PMS_P2;Temp;Humidity;BMP_temperature;BMP_pressure;BME280_temperature;BME280_humidity;BME280_pressure;Samples;Min_cycle;Max_cycle;Signal;HPM_P1;HPM_P2
2021/08/19 00:04:17;;;;;;;10.63;8.00;;;;;;;;;;10282452;28;20056;-56
2021/08/19 00:09:16;;;;;;;9.85;8.02;;;;;;;;;;10283263;28;20080;-55
2021/08/19 00:14:15;;;;;;;8.63;7.72;;;;;;;;;;10283078;28;20052;-56
2021/08/19 00:19:14;;;;;;;9.07;7.22;;;;;;;;;;10283035;28;20075;-56
2021/08/19 00:24:12;;;;;;;7.63;6.63;;;;;;;;;;10282771;28;20049;-57
2021/08/19 00:29:10;;;;;;;9.32;5.72;;;;;;;;;;10282304;28;20074;-57
2021/08/19 00:34:10;;;;;;;7.68;5.82;;;;;;;;;;10282415;28;20056;-56
2021/08/19 00:39:08;;;;;;;5.97;4.40;;;;;;;;;;10282126;28;20079;-58
2021/08/19 00:44:07;;;;;;;6.45;3.67;;;;;;;;;;10282183;28;20080;-56
2021/08/19 00:49:06;;;;;;;4.57;3.17;;;;;;;;;;10282311;28;20060;-57
2021/08/19 00:54:07;;;;;;;5.30;3.58;;;;;;;;;;10281787;28;20570;-55
2021/08/19 00:59:07;;;;;;;6.97;4.30;;;;;;;;;;10281775;28;20087;-56
2021/08/19 01:04:05;;;;;;;4.72;3.45;;;;;;;;;;10281292;28;20068;-55
2021/08/19 01:09:04;;;;;;;4.68;3.30;;;;;;;;;;10280297;28;20068;-56
2021/08/19 01:14:04;;;;;;;3.75;3.20;;;;;;;;;;10280902;28;20045;-56
2021/08/19 01:19:02;;;;;;;4.35;2.97;;;;;;;;;;10280764;28;20072;-54
2021/08/19 01:24:01;;;;;;;4.05;2.47;;;;;;;;;;10280523;28;20067;-56
2021/08/19 01:29:04;;;;;;;3.85;2.53;;;;;;;;;;10279354;28;20425;-57
2021/08/19 01:34:03;;;;;;;4.00;3.03;;;;;;;;;;10278419;28;20422;-55
2021/08/19 01:39:01;;;;;;;3.63;2.75;;;;;;;;;;10278790;28;20052;-56
2021/08/19 01:44:01;;;;;;;4.28;3.20;;;;;;;;;;10278719;28;20084;-56
2021/08/19 01:49:02;;;;;;;11.32;3.88;;;;;;;;;;10278824;28;20057;-55
2021/08/19 01:54:00;;;;;;;4.68;3.03;;;;;;;;;;10279040;28;20053;-56
2021/08/19 01:58:58;;;;;;;5.35;3.10;;;;;;;;;;10278339;28;20070;-57
2021/08/19 02:03:58;;;;;;;5.53;3.53;;;;;;;;;;10278448;28;20055;-58
2021/08/19 02:08:57;;;;;;;5.30;3.85;;;;;;;;;;10278743;28;20048;-54
2021/08/19 02:13:55;;;;;;;4.07;3.67;;;;;;;;;;10278431;28;20052;-57
2021/08/19 02:18:53;;;;;;;3.33;3.03;;;;;;;;;;10277921;28;20455;-57
2021/08/19 02:23:53;;;;;;;4.90;3.72;;;;;;;;;;10278092;28;20060;-58
2021/08/19 02:28:51;;;;;;;3.95;3.20;;;;;;;;;;10278274;28;20410;-58
2021/08/19 02:33:49;;;;;;;3.50;3.20;;;;;;;;;;10277833;28;20045;-57
2021/08/19 02:38:48;;;;;;;6.35;3.63;;;;;;;;;;10277556;28;20083;-57
2021/08/19 02:43:47;;;;;;;4.75;3.67;;;;;;;;;;10277442;28;20041;-58
2021/08/19 02:48:46;;;;;;;3.53;3.22;;;;;;;;;;10276795;28;20061;-57
2021/08/19 02:53:44;;;;;;;5.68;3.25;;;;;;;;;;10277225;28;20067;-57
2021/08/19 02:58:42;;;;;;;4.90;3.78;;;;;;;;;;10277055;28;20072;-58
2021/08/19 03:03:42;;;;;;;4.20;3.50;;;;;;;;;;10276019;28;20049;-58
2021/08/19 03:08:40;;;;;;;5.15;3.53;;;;;;;;;;10276661;28;20083;-57
2021/08/19 03:13:38;;;;;;;3.92;3.55;;;;;;;;;;10276650;28;20045;-58
2021/08/19 03:18:37;;;;;;;6.00;3.78;;;;;;;;;;10276417;28;20048;-59
2021/08/19 03:23:37;;;;;;;3.70;3.05;;;;;;;;;;10276424;28;20037;-58
2021/08/19 03:28:35;;;;;;;3.63;3.20;;;;;;;;;;10276254;28;20406;-61
2021/08/19 03:33:33;;;;;;;4.28;3.70;;;;;;;;;;10276162;28;20075;-59
2021/08/19 03:38:32;;;;;;;4.38;3.83;;;;;;;;;;10275858;28;20037;-59
2021/08/19 03:43:31;;;;;;;6.88;4.25;;;;;;;;;;10276322;28;20052;-59
2021/08/19 03:48:30;;;;;;;5.72;3.60;;;;;;;;;;10275309;28;20057;-58
2021/08/19 03:53:28;;;;;;;4.50;4.10;;;;;;;;;;10275804;28;20198;-57
2021/08/19 03:58:26;;;;;;;4.68;3.63;;;;;;;;;;10274873;28;20203;-57
2021/08/19 04:03:26;;;;;;;5.90;5.13;;;;;;;;;;10275705;28;20325;-59
2021/08/19 04:08:24;;;;;;;10.93;9.82;;;;;;;;;;10275506;28;20052;-58
2021/08/19 04:13:23;;;;;;;3.35;2.92;;;;;;;;;;10274621;28;20053;-58
2021/08/19 04:18:21;;;;;;;5.53;3.47;;;;;;;;;;10281527;28;20045;-58
2021/08/19 04:23:21;;;;;;;5.30;3.65;;;;;;;;;;10281044;28;20076;-59
2021/08/19 04:28:19;;;;;;;37.42;33.47;;;;;;;;;;10281741;28;20044;-59
2021/08/19 04:33:17;;;;;;;15.52;12.75;;;;;;;;;;10292315;28;20084;-57
2021/08/19 04:38:15;;;;;;;4.55;3.42;;;;;;;;;;10304825;28;20044;-57
2021/08/19 04:43:15;;;;;;;3.33;3.03;;;;;;;;;;10294774;28;20077;-57
2021/08/19 04:48:13;;;;;;;8.60;4.75;;;;;;;;;;10305428;28;20049;-57
2021/08/19 04:53:12;;;;;;;9.13;4.22;;;;;;;;;;10300932;28;20084;-57
2021/08/19 04:58:10;;;;;;;6.90;4.30;;;;;;;;;;10289848;28;20072;-57
2021/08/19 05:03:10;;;;;;;4.78;4.28;;;;;;;;;;10281321;28;20083;-57
2021/08/19 05:08:08;;;;;;;7.97;3.60;;;;;;;;;;10288019;28;20045;-57
2021/08/19 05:13:07;;;;;;;3.80;3.35;;;;;;;;;;10301524;28;20481;-57
2021/08/19 05:18:05;;;;;;;5.57;2.80;;;;;;;;;;10296523;28;20091;-57
2021/08/19 05:23:06;;;;;;;4.00;3.25;;;;;;;;;;10299807;28;20079;-57
2021/08/19 05:28:05;;;;;;;5.72;3.13;;;;;;;;;;10290856;28;20073;-57
2021/08/19 05:33:03;;;;;;;3.90;2.83;;;;;;;;;;10273410;28;20211;-57
2021/08/19 05:38:01;;;;;;;2.85;2.53;;;;;;;;;;10275611;28;20073;-56
2021/08/19 05:43:01;;;;;;;3.17;2.20;;;;;;;;;;10275496;28;20367;-57
2021/08/19 05:48:01;;;;;;;3.90;1.88;;;;;;;;;;10277526;28;20081;-57
2021/08/19 05:52:59;;;;;;;2.15;1.83;;;;;;;;;;10278401;28;20045;-57
2021/08/19 05:57:58;;;;;;;5.28;3.28;;;;;;;;;;10279097;28;20059;-56
2021/08/19 06:02:57;;;;;;;2.70;1.60;;;;;;;;;;10278848;28;20083;-58
2021/08/19 06:07:56;;;;;;;3.50;1.83;;;;;;;;;;10278786;28;20453;-57
2021/08/19 06:12:55;;;;;;;5.75;2.80;;;;;;;;;;10277784;28;20037;-58
2021/08/19 06:17:53;;;;;;;1.75;1.58;;;;;;;;;;10278032;28;20041;-58
2021/08/19 06:22:54;;;;;;;14.90;10.43;;;;;;;;;;10277852;28;20088;-59
2021/08/19 06:27:53;;;;;;;2.88;2.08;;;;;;;;;;10277319;28;20061;-58
2021/08/19 06:32:52;;;;;;;5.28;2.80;;;;;;;;;;10278038;28;20053;-57
2021/08/19 06:37:51;;;;;;;10.40;7.63;;;;;;;;;;10277401;28;20059;-57
2021/08/19 06:42:50;;;;;;;6.55;3.85;;;;;;;;;;10277265;28;20116;-57
2021/08/19 06:47:49;;;;;;;4.85;4.05;;;;;;;;;;10276310;28;20064;-57
2021/08/19 06:52:48;;;;;;;4.03;2.10;;;;;;;;;;10277071;28;20052;-59
2021/08/19 06:57:47;;;;;;;3.58;3.08;;;;;;;;;;10277023;28;20075;-57
2021/08/19 07:02:47;;;;;;;4.03;2.60;;;;;;;;;;10276638;28;20080;-57
2021/08/19 07:07:46;;;;;;;6.05;3.67;;;;;;;;;;10276402;28;20052;-58
2021/08/19 07:12:44;;;;;;;4.03;3.63;;;;;;;;;;10276402;28;20048;-57
2021/08/19 07:17:42;;;;;;;2.72;1.90;;;;;;;;;;10276290;28;20037;-58
2021/08/19 07:22:45;;;;;;;2.50;2.22;;;;;;;;;;10275896;28;20072;-58
2021/08/19 07:27:43;;;;;;;2.38;2.17;;;;;;;;;;10276160;28;20209;-57
2021/08/19 07:32:41;;;;;;;2.45;1.98;;;;;;;;;;10275796;28;20441;-56
2021/08/19 07:37:49;;;;;;;2.75;2.20;;;;;;;;;;10275951;28;20045;-57
2021/08/19 07:42:47;;;;;;;2.30;1.70;;;;;;;;;;10275533;28;20103;-56
2021/08/19 07:47:46;;;;;;;2.53;1.83;;;;;;;;;;10275032;28;20525;-57
2021/08/19 07:52:44;;;;;;;9.73;1.90;;;;;;;;;;10280680;28;20538;-57
2021/08/19 07:57:45;;;;;;;2.42;2.08;;;;;;;;;;10283412;28;20379;-57
2021/08/19 08:02:46;;;;;;;3.70;2.10;;;;;;;;;;10283309;28;20083;-57
2021/08/19 08:07:45;;;;;;;2.80;2.13;;;;;;;;;;10282744;28;20160;-58
2021/08/19 08:12:45;;;;;;;5.18;3.10;;;;;;;;;;10283287;28;20048;-58
2021/08/19 08:17:43;;;;;;;4.13;2.97;;;;;;;;;;10281912;28;20052;-58
2021/08/19 08:22:43;;;;;;;3.13;2.20;;;;;;;;;;10282561;28;20087;-58
2021/08/19 08:28:04;;;;;;;3.53;2.20;;;;;;;;;;10282716;28;20059;-58
2021/08/19 08:33:03;;;;;;;5.30;3.85;;;;;;;;;;10281018;28;20049;-58
2021/08/19 08:38:03;;;;;;;6.30;3.03;;;;;;;;;;10282162;28;20445;-57
2021/08/19 08:43:03;;;;;;;3.65;2.30;;;;;;;;;;10281638;28;20092;-58
2021/08/19 08:48:02;;;;;;;2.30;1.85;;;;;;;;;;10281192;28;20053;-57
2021/08/19 08:53:00;;;;;;;5.63;2.25;;;;;;;;;;10281450;28;20041;-56
2021/08/19 08:57:59;;;;;;;4.00;1.67;;;;;;;;;;10281386;28;20074;-57
2021/08/19 09:02:59;;;;;;;11.82;9.65;;;;;;;;;;10279683;28;20499;-57
2021/08/19 09:07:58;;;;;;;4.10;3.08;;;;;;;;;;10281198;28;20076;-59
2021/08/19 09:12:57;;;;;;;4.28;3.25;;;;;;;;;;10280661;28;20076;-55
2021/08/19 09:17:56;;;;;;;2.60;2.28;;;;;;;;;;10280611;28;20040;-57
2021/08/19 09:22:58;;;;;;;3.40;3.05;;;;;;;;;;10280218;28;20073;-58
2021/08/19 09:28:09;;;;;;;2.72;2.47;;;;;;;;;;10280132;28;20041;-58
2021/08/19 09:33:08;;;;;;;3.15;2.33;;;;;;;;;;10279457;28;20531;-58
2021/08/19 09:38:08;;;;;;;3.90;2.80;;;;;;;;;;10280044;28;20073;-57
2021/08/19 09:43:07;;;;;;;2.45;2.22;;;;;;;;;;10279627;28;20106;-57
2021/08/19 09:48:09;;;;;;;4.35;2.92;;;;;;;;;;10278941;28;20068;-58
2021/08/19 09:53:23;;;;;;;3.25;2.55;;;;;;;;;;10279429;28;20049;-54
2021/08/19 09:58:29;;;;;;;3.05;2.50;;;;;;;;;;10279237;28;20085;-58
2021/08/19 10:03:28;;;;;;;3.75;2.88;;;;;;;;;;10278867;28;20053;-57
2021/08/19 10:08:28;;;;;;;4.53;2.85;;;;;;;;;;10278810;28;20052;-58
2021/08/19 10:13:26;;;;;;;9.00;7.47;;;;;;;;;;10278406;28;20052;-58
2021/08/19 10:18:28;;;;;;;3.28;2.97;;;;;;;;;;10278647;28;20045;-58
2021/08/19 10:23:28;;;;;;;5.80;3.47;;;;;;;;;;10278234;28;20949;-55
2021/08/19 10:28:27;;;;;;;5.85;3.70;;;;;;;;;;10278103;28;20041;-58
2021/08/19 10:33:44;;;;;;;2.97;2.22;;;;;;;;;;10277910;28;20060;-58
2021/08/19 10:38:44;;;;;;;2.72;2.42;;;;;;;;;;10277715;28;20079;-58
2021/08/19 10:43:42;;;;;;;2.10;1.90;;;;;;;;;;10277384;28;20087;-58
2021/08/19 10:48:48;;;;;;;2.22;1.98;;;;;;;;;;10276792;28;20048;-57
2021/08/19 10:53:48;;;;;;;4.45;2.22;;;;;;;;;;10277216;28;20059;-58
2021/08/19 10:58:46;;;;;;;2.70;2.35;;;;;;;;;;10277022;28;20048;-57
2021/08/19 11:03:46;;;;;;;3.45;2.92;;;;;;;;;;10276750;28;20539;-59
2021/08/19 11:08:46;;;;;;;5.80;4.10;;;;;;;;;;10277081;28;20044;-57
2021/08/19 11:13:46;;;;;;;6.53;5.70;;;;;;;;;;10276745;28;20037;-57
2021/08/19 11:18:45;;;;;;;8.27;3.40;;;;;;;;;;10276517;28;20049;-59
2021/08/19 11:23:44;;;;;;;4.68;2.63;;;;;;;;;;10275770;28;20486;-58
2021/08/19 11:28:43;;;;;;;3.33;3.03;;;;;;;;;;10275779;28;20442;-57
2021/08/19 11:33:43;;;;;;;5.72;4.00;;;;;;;;;;10275247;28;20045;-58
2021/08/19 11:38:44;;;;;;;11.32;10.15;;;;;;;;;;10275971;28;20445;-58
2021/08/19 11:43:43;;;;;;;7.07;3.85;;;;;;;;;;10276048;28;20078;-57
2021/08/19 11:48:50;;;;;;;2.67;2.47;;;;;;;;;;10275046;28;20057;-58
2021/08/19 11:53:52;;;;;;;4.60;3.60;;;;;;;;;;10275945;28;20045;-58
2021/08/19 11:58:52;;;;;;;4.43;3.67;;;;;;;;;;10275774;28;20053;-57
2021/08/19 12:03:53;;;;;;;3.33;2.92;;;;;;;;;;10275604;28;20048;-58
2021/08/19 12:08:52;;;;;;;3.17;2.42;;;;;;;;;;10275396;28;20045;-58
2021/08/19 12:13:51;;;;;;;6.07;2.47;;;;;;;;;;10275521;28;20049;-58
2021/08/19 12:19:10;;;;;;;3.72;3.42;;;;;;;;;;10275526;28;20041;-58
2021/08/19 12:24:17;;;;;;;4.43;2.85;;;;;;;;;;10275222;28;20084;-57
2021/08/19 12:29:20;;;;;;;3.95;3.42;;;;;;;;;;10275327;28;20049;-57
2021/08/19 12:34:20;;;;;;;4.32;3.58;;;;;;;;;;10275259;28;20500;-57
2021/08/19 12:39:20;;;;;;;4.00;3.03;;;;;;;;;;10281067;28;20045;-57
2021/08/19 12:44:19;;;;;;;2.50;2.30;;;;;;;;;;10282423;28;20088;-57
2021/08/19 12:49:32;;;;;;;4.40;2.47;;;;;;;;;;10281530;28;20092;-56
2021/08/19 12:54:31;;;;;;;5.93;2.92;;;;;;;;;;10281890;28;20053;-60
2021/08/19 12:59:30;;;;;;;7.70;2.70;;;;;;;;;;10280736;28;20103;-58
2021/08/19 13:04:28;;;;;;;4.63;3.22;;;;;;;;;;10281306;28;20072;-57
2021/08/19 13:09:28;;;;;;;3.33;2.55;;;;;;;;;;10281136;28;20041;-58
2021/08/19 13:14:26;;;;;;;3.08;2.70;;;;;;;;;;10280235;28;20052;-59
2021/08/19 13:19:25;;;;;;;4.88;3.00;;;;;;;;;;10281056;28;20049;-58
2021/08/19 13:24:23;;;;;;;3.00;2.38;;;;;;;;;;10280840;28;20506;-56
2021/08/19 13:29:23;;;;;;;3.67;2.50;;;;;;;;;;10279589;28;20613;-60
2021/08/19 13:34:21;;;;;;;8.57;3.05;;;;;;;;;;10280315;28;20045;-58
2021/08/19 13:39:20;;;;;;;4.57;2.00;;;;;;;;;;10280014;28;20049;-58
2021/08/19 13:44:18;;;;;;;4.68;2.50;;;;;;;;;;10279864;28;20095;-58
2021/08/19 13:49:18;;;;;;;2.83;2.60;;;;;;;;;;10278461;28;20541;-58
2021/08/19 13:54:16;;;;;;;2.75;2.20;;;;;;;;;;10277880;28;20422;-58
2021/08/19 13:59:17;;;;;;;4.18;2.28;;;;;;;;;;10279521;28;20044;-58
2021/08/19 14:04:15;;;;;;;7.10;3.65;;;;;;;;;;10279309;28;20068;-58
2021/08/19 14:09:15;;;;;;;5.47;3.67;;;;;;;;;;10278874;28;20045;-57
2021/08/19 14:14:13;;;;;;;4.25;2.65;;;;;;;;;;10278690;28;20048;-57
2021/08/19 14:19:12;;;;;;;5.55;2.88;;;;;;;;;;10278672;28;20044;-58
2021/08/19 14:24:10;;;;;;;3.08;2.58;;;;;;;;;;10277257;28;20113;-58
2021/08/19 14:29:10;;;;;;;6.78;4.85;;;;;;;;;;10278276;28;20048;-58
2021/08/19 14:34:08;;;;;;;7.28;6.57;;;;;;;;;;10278143;28;20041;-57
2021/08/19 14:39:06;;;;;;;3.85;3.35;;;;;;;;;;10275536;28;20045;-57
2021/08/19 14:44:05;;;;;;;2.60;2.35;;;;;;;;;;10277649;28;20076;-55
2021/08/19 14:49:06;;;;;;;5.40;4.05;;;;;;;;;;10276825;28;20080;-57
2021/08/19 14:54:04;;;;;;;9.68;8.20;;;;;;;;;;10277247;28;20052;-58
2021/08/19 14:59:03;;;;;;;5.63;5.13;;;;;;;;;;10277102;28;20206;-58
2021/08/19 15:04:01;;;;;;;9.07;7.70;;;;;;;;;;10276980;28;20076;-58
2021/08/19 15:09:01;;;;;;;4.00;3.60;;;;;;;;;;10276906;28;20088;-58
2021/08/19 15:14:00;;;;;;;6.57;4.13;;;;;;;;;;10276737;28;20247;-57
2021/08/19 15:18:58;;;;;;;6.57;2.53;;;;;;;;;;10276702;28;20253;-57
2021/08/19 15:23:57;;;;;;;7.07;5.97;;;;;;;;;;10276502;28;20697;-57
2021/08/19 15:28:56;;;;;;;6.38;5.47;;;;;;;;;;10276336;28;20045;-58
2021/08/19 15:33:55;;;;;;;4.38;3.10;;;;;;;;;;10276129;28;20418;-58
2021/08/19 15:38:53;;;;;;;5.63;3.53;;;;;;;;;;10276052;28;20418;-58
2021/08/19 15:43:52;;;;;;;3.78;3.28;;;;;;;;;;10275948;28;20551;-58
2021/08/19 15:48:51;;;;;;;7.32;6.63;;;;;;;;;;10275477;28;20426;-58
2021/08/19 15:53:50;;;;;;;10.85;9.82;;;;;;;;;;10275906;28;20044;-60
2021/08/19 15:58:49;;;;;;;7.00;3.30;;;;;;;;;;10275368;28;20073;-59
2021/08/19 16:03:47;;;;;;;7.85;6.18;;;;;;;;;;10273116;28;20065;-58
2021/08/19 16:08:47;;;;;;;6.78;6.07;;;;;;;;;;10275467;28;20482;-58
2021/08/19 16:13:45;;;;;;;6.03;5.50;;;;;;;;;;10281215;28;20048;-58
2021/08/19 16:18:44;;;;;;;5.82;5.25;;;;;;;;;;10283245;28;20060;-58
2021/08/19 16:23:42;;;;;;;6.82;5.60;;;;;;;;;;10282848;28;20524;-57
2021/08/19 16:28:42;;;;;;;5.13;4.28;;;;;;;;;;10282687;28;20049;-58
2021/08/19 16:33:40;;;;;;;9.02;7.65;;;;;;;;;;10282287;28;20075;-59
2021/08/19 16:38:39;;;;;;;8.40;4.60;;;;;;;;;;10282339;28;20092;-58
2021/08/19 16:43:37;;;;;;;6.05;2.92;;;;;;;;;;10281936;28;20111;-57
2021/08/19 16:48:37;;;;;;;5.60;3.47;;;;;;;;;;10281478;28;20395;-58
2021/08/19 16:53:35;;;;;;;4.30;3.00;;;;;;;;;;10281797;28;20041;-56
2021/08/19 16:58:33;;;;;;;9.50;3.97;;;;;;;;;;10281636;28;20064;-57
2021/08/19 17:03:32;;;;;;;8.60;3.90;;;;;;;;;;10281228;28;20073;-53
2021/08/19 17:08:36;;;;;;;6.00;3.50;;;;;;;;;;10281532;28;20076;-56
2021/08/19 17:13:34;;;;;;;6.93;4.50;;;;;;;;;;10280997;28;20048;-56
2021/08/19 17:18:32;;;;;;;4.32;3.40;;;;;;;;;;10280784;28;20045;-56
2021/08/19 17:23:31;;;;;;;7.97;4.40;;;;;;;;;;10279614;28;20513;-57
2021/08/19 17:28:30;;;;;;;4.22;3.65;;;;;;;;;;10280190;28;20544;-56
2021/08/19 17:33:28;;;;;;;3.80;3.13;;;;;;;;;;10280549;28;20041;-59
2021/08/19 17:38:27;;;;;;;4.88;4.10;;;;;;;;;;10280460;28;20041;-55
2021/08/19 17:43:26;;;;;;;3.60;2.97;;;;;;;;;;10279368;28;20414;-53
2021/08/19 17:48:25;;;;;;;5.10;4.28;;;;;;;;;;10279170;28;20092;-56
2021/08/19 17:53:23;;;;;;;4.25;3.30;;;;;;;;;;10279562;28;20044;-56
2021/08/19 17:58:22;;;;;;;5.53;3.78;;;;;;;;;;10278637;28;20052;-58
2021/08/19 18:03:20;;;;;;;7.15;3.70;;;;;;;;;;10279065;28;20052;-52
2021/08/19 18:08:20;;;;;;;3.85;3.55;;;;;;;;;;10278882;28;20083;-57
2021/08/19 18:13:18;;;;;;;5.80;4.47;;;;;;;;;;10278688;28;20048;-56
2021/08/19 18:18:17;;;;;;;5.35;3.08;;;;;;;;;;10278266;28;20080;-56
2021/08/19 18:23:15;;;;;;;5.20;4.70;;;;;;;;;;10278282;28;20053;-55
2021/08/19 18:28:15;;;;;;;3.83;2.95;;;;;;;;;;10278083;28;20076;-56
2021/08/19 18:33:15;;;;;;;6.43;3.90;;;;;;;;;;10277731;28;20087;-55
2021/08/19 18:38:14;;;;;;;4.63;3.85;;;;;;;;;;10277834;28;20489;-57
2021/08/19 18:43:12;;;;;;;5.90;3.25;;;;;;;;;;10277684;28;20045;-55
2021/08/19 18:48:12;;;;;;;3.28;2.97;;;;;;;;;;10277009;28;20085;-56
2021/08/19 18:53:10;;;;;;;4.30;3.67;;;;;;;;;;10277277;28;20049;-56
2021/08/19 18:58:11;;;;;;;4.85;2.85;;;;;;;;;;10277068;28;20087;-56
2021/08/19 19:03:10;;;;;;;3.85;3.45;;;;;;;;;;10277133;28;20166;-56
2021/08/19 19:08:09;;;;;;;4.43;3.50;;;;;;;;;;10276029;28;20485;-56
2021/08/19 19:13:08;;;;;;;4.10;3.53;;;;;;;;;;10276621;28;20080;-56
2021/08/19 19:18:06;;;;;;;6.18;3.78;;;;;;;;;;10276889;28;20084;-56
2021/08/19 19:23:05;;;;;;;3.20;2.90;;;;;;;;;;10275572;28;20033;-57
2021/08/19 19:28:05;;;;;;;3.28;2.65;;;;;;;;;;10275947;28;20097;-59
2021/08/19 19:33:05;;;;;;;6.25;3.05;;;;;;;;;;10275958;28;20485;-56
2021/08/19 19:38:03;;;;;;;6.13;4.03;;;;;;;;;;10275431;28;20095;-56
2021/08/19 19:43:01;;;;;;;3.97;3.50;;;;;;;;;;10275778;28;20417;-61
2021/08/19 19:48:01;;;;;;;4.57;3.65;;;;;;;;;;10279915;28;20088;-57
2021/08/19 19:52:59;;;;;;;5.22;3.28;;;;;;;;;;10284221;28;20049;-56
2021/08/19 19:57:59;;;;;;;4.85;3.20;;;;;;;;;;10283726;28;20076;-55
2021/08/19 20:02:58;;;;;;;2.95;2.65;;;;;;;;;;10283472;28;20497;-57
2021/08/19 20:07:58;;;;;;;3.95;3.00;;;;;;;;;;10283368;28;20080;-55
2021/08/19 20:12:56;;;;;;;3.92;2.83;;;;;;;;;;10283163;28;20044;-55
2021/08/19 20:17:55;;;;;;;4.78;2.60;;;;;;;;;;10282876;28;20041;-57
2021/08/19 20:22:53;;;;;;;2.92;2.35;;;;;;;;;;10282755;28;20053;-55
2021/08/19 20:27:53;;;;;;;6.85;3.08;;;;;;;;;;10282654;28;20076;-57
2021/08/19 20:32:52;;;;;;;4.22;2.55;;;;;;;;;;10282549;28;20049;-55
2021/08/19 20:37:51;;;;;;;3.67;2.72;;;;;;;;;;10281609;28;20072;-58
2021/08/19 20:42:50;;;;;;;3.08;2.47;;;;;;;;;;10282135;28;20069;-56
2021/08/19 20:47:50;;;;;;;9.75;4.03;;;;;;;;;;10281382;28;20084;-56
2021/08/19 20:52:48;;;;;;;4.13;2.65;;;;;;;;;;10281817;28;20048;-56
2021/08/19 20:57:47;;;;;;;3.03;2.47;;;;;;;;;;10281384;28;20056;-56
2021/08/19 21:02:46;;;;;;;3.55;2.67;;;;;;;;;;10280836;28;20052;-56
2021/08/19 21:07:46;;;;;;;4.70;2.35;;;;;;;;;;10281075;28;20091;-56
2021/08/19 21:12:44;;;;;;;5.38;2.60;;;;;;;;;;10280990;28;20099;-56
2021/08/19 21:17:42;;;;;;;5.88;2.40;;;;;;;;;;10280657;28;20069;-57
2021/08/19 21:22:44;;;;;;;3.03;2.60;;;;;;;;;;10280550;28;20068;-57
2021/08/19 21:27:44;;;;;;;4.32;3.05;;;;;;;;;;10280587;28;20087;-56
2021/08/19 21:32:42;;;;;;;5.65;2.40;;;;;;;;;;10280674;28;20052;-57
2021/08/19 21:37:40;;;;;;;3.88;2.90;;;;;;;;;;10280325;28;20096;-57
2021/08/19 21:42:39;;;;;;;3.08;2.42;;;;;;;;;;10279745;28;20071;-56
2021/08/19 21:47:38;;;;;;;4.95;2.70;;;;;;;;;;10279064;28;20095;-53
2021/08/19 21:52:37;;;;;;;3.10;2.78;;;;;;;;;;10279522;28;20056;-57
2021/08/19 21:57:35;;;;;;;5.43;2.58;;;;;;;;;;10279179;28;20048;-55
2021/08/19 22:02:33;;;;;;;4.03;2.67;;;;;;;;;;10278472;28;20072;-57
2021/08/19 22:07:33;;;;;;;2.50;2.30;;;;;;;;;;10278921;28;20080;-57
2021/08/19 22:12:32;;;;;;;2.80;2.53;;;;;;;;;;10277821;28;20426;-57
2021/08/19 22:17:30;;;;;;;3.38;2.60;;;;;;;;;;10278440;28;20041;-56
2021/08/19 22:22:28;;;;;;;2.55;2.22;;;;;;;;;;10278292;28;20073;-54
2021/08/19 22:27:28;;;;;;;2.85;2.40;;;;;;;;;;10277247;28;20103;-53
2021/08/19 22:32:26;;;;;;;2.53;2.25;;;;;;;;;;10277675;28;20045;-56
2021/08/19 22:37:25;;;;;;;2.70;2.42;;;;;;;;;;10277617;28;20032;-55
2021/08/19 22:42:23;;;;;;;3.28;2.47;;;;;;;;;;10277389;28;20163;-56
2021/08/19 22:47:23;;;;;;;4.80;2.80;;;;;;;;;;10276551;28;20111;-56
2021/08/19 22:52:21;;;;;;;3.13;2.80;;;;;;;;;;10277632;28;20091;-56
2021/08/19 22:57:19;;;;;;;4.68;2.35;;;;;;;;;;10277100;28;20041;-57
2021/08/19 23:02:18;;;;;;;4.53;2.30;;;;;;;;;;10276318;28;20103;-55
2021/08/19 23:07:17;;;;;;;2.53;2.33;;;;;;;;;;10276829;28;20077;-56
2021/08/19 23:12:17;;;;;;;3.13;2.78;;;;;;;;;;10276437;28;20421;-56
2021/08/19 23:17:16;;;;;;;3.03;2.67;;;;;;;;;;10276312;28;20489;-56
2021/08/19 23:22:14;;;;;;;3.30;2.42;;;;;;;;;;10275335;28;20040;-56
2021/08/19 23:27:17;;;;;;;2.67;2.25;;;;;;;;;;10276024;28;20099;-53
2021/08/19 23:32:15;;;;;;;4.60;2.85;;;;;;;;;;10276303;28;20088;-56
2021/08/19 23:37:13;;;;;;;4.45;2.78;;;;;;;;;;10276169;28;20049;-57
2021/08/19 23:42:12;;;;;;;8.60;2.85;;;;;;;;;;10275668;28;20076;-58
2021/08/19 23:47:11;;;;;;;4.50;3.08;;;;;;;;;;10275396;28;20094;-55
2021/08/19 23:52:10;;;;;;;5.55;2.70;;;;;;;;;;10275589;28;20501;-54
2021/08/19 23:57:08;;;;;;;2.92;2.67;;;;;;;;;;10275809;28;20048;-55
